createdAt,value
2018-11-06T00:00:53.409Z,5.10
2018-11-06T00:03:26.911Z,5.10
2018-11-06T00:05:55.089Z,5.10
2018-11-06T00:08:23.297Z,5.00
2018-11-06T00:10:51.481Z,5.00
2018-11-06T00:13:19.670Z,5.10
2018-11-06T00:15:47.854Z,5.10
2018-11-06T00:18:16.022Z,5.00
2018-11-06T00:20:44.210Z,5.10
2018-11-06T00:23:12.403Z,5.10
2018-11-06T00:25:40.590Z,5.20
2018-11-06T00:28:08.791Z,5.10
2018-11-06T00:30:36.982Z,5.00
2018-11-06T00:33:05.206Z,4.90
2018-11-06T00:35:33.382Z,4.80
2018-11-06T00:38:01.584Z,4.80
2018-11-06T00:40:29.752Z,4.80
2018-11-06T00:42:57.937Z,4.90
2018-11-06T00:45:26.121Z,4.90
2018-11-06T00:47:54.322Z,5.00
2018-11-06T00:50:22.536Z,5.10
2018-11-06T00:52:50.737Z,5.10
2018-11-06T00:55:18.918Z,5.00
2018-11-06T00:57:47.115Z,4.90
2018-11-06T01:00:18.390Z,4.80
2018-11-06T01:02:46.861Z,4.80
2018-11-06T01:05:15.845Z,4.80
2018-11-06T01:07:45.116Z,4.70
2018-11-06T01:10:13.346Z,4.70
2018-11-06T01:12:41.601Z,4.90
2018-11-06T01:15:12.237Z,4.90
2018-11-06T01:17:40.909Z,4.90
2018-11-06T01:20:11.448Z,4.90
2018-11-06T01:22:39.661Z,4.90
2018-11-06T01:25:08.427Z,4.90
2018-11-06T01:27:36.657Z,4.90
2018-11-06T01:30:08.435Z,4.90
2018-11-06T01:32:36.745Z,4.80
2018-11-06T01:35:05.783Z,4.80
2018-11-06T01:37:33.957Z,4.80
2018-11-06T01:40:02.129Z,4.80
2018-11-06T01:42:30.282Z,4.70
2018-11-06T01:44:58.466Z,4.70
2018-11-06T01:47:26.653Z,4.70
2018-11-06T01:49:54.817Z,4.60
2018-11-06T01:52:23.013Z,4.70
2018-11-06T01:54:51.179Z,4.70
2018-11-06T01:57:19.366Z,4.70
2018-11-06T01:59:47.530Z,4.70
2018-11-06T02:02:15.710Z,4.80
2018-11-06T02:04:43.897Z,4.80
2018-11-06T02:07:12.069Z,4.80
2018-11-06T02:09:40.253Z,4.70
2018-11-06T02:12:08.421Z,4.70
2018-11-06T02:14:36.582Z,4.60
2018-11-06T02:17:04.897Z,4.50
2018-11-06T02:19:33.085Z,4.50
2018-11-06T02:22:01.288Z,4.50
2018-11-06T02:24:29.446Z,4.40
2018-11-06T02:26:57.645Z,4.40
2018-11-06T02:29:25.806Z,4.40
2018-11-06T02:31:54.010Z,4.40
2018-11-06T02:34:22.210Z,4.40
2018-11-06T02:36:50.402Z,4.20
2018-11-06T02:39:18.588Z,4.30
2018-11-06T02:41:46.746Z,4.30
2018-11-06T02:44:14.927Z,4.30
2018-11-06T02:46:43.113Z,4.30
2018-11-06T02:49:11.301Z,4.40
2018-11-06T02:51:39.465Z,4.40
2018-11-06T02:54:07.633Z,4.30
2018-11-06T02:56:35.829Z,4.30
2018-11-06T02:59:03.994Z,4.40
2018-11-06T03:01:32.178Z,4.30
2018-11-06T03:04:00.383Z,4.30
2018-11-06T03:06:28.530Z,4.30
2018-11-06T03:08:56.743Z,4.30
2018-11-06T03:11:24.925Z,4.30
2018-11-06T03:13:53.085Z,4.30
2018-11-06T03:16:21.254Z,4.30
2018-11-06T03:18:49.427Z,4.30
2018-11-06T03:21:17.610Z,4.30
2018-11-06T03:23:45.789Z,4.30
2018-11-06T03:26:13.953Z,4.20
2018-11-06T03:28:42.130Z,4.20
2018-11-06T03:31:10.304Z,4.10
2018-11-06T03:33:38.465Z,4.00
2018-11-06T03:36:06.705Z,4.00
2018-11-06T03:38:34.858Z,4.00
2018-11-06T03:41:03.017Z,4.00
2018-11-06T03:43:31.170Z,3.80
2018-11-06T03:45:59.326Z,3.90
2018-11-06T03:48:27.496Z,3.90
2018-11-06T03:50:55.638Z,3.90
2018-11-06T03:53:23.790Z,3.90
2018-11-06T03:55:51.950Z,3.90
2018-11-06T03:58:20.115Z,3.80
2018-11-06T04:00:48.284Z,3.80
2018-11-06T04:03:16.470Z,3.80
2018-11-06T04:05:44.629Z,3.80
2018-11-06T04:08:12.803Z,3.80
2018-11-06T04:10:41.003Z,3.80
2018-11-06T04:13:09.171Z,3.80
2018-11-06T04:15:37.322Z,3.80
2018-11-06T04:18:05.678Z,3.70
2018-11-06T04:20:33.841Z,3.80
2018-11-06T04:23:02.003Z,3.80
2018-11-06T04:25:30.161Z,3.80
2018-11-06T04:27:58.317Z,3.70
2018-11-06T04:30:26.474Z,3.70
2018-11-06T04:32:54.657Z,3.70
2018-11-06T04:35:22.819Z,3.60
2018-11-06T04:37:50.986Z,3.60
2018-11-06T04:40:19.154Z,3.60
2018-11-06T04:42:47.323Z,3.60
2018-11-06T04:45:15.486Z,3.50
2018-11-06T04:47:43.676Z,3.60
2018-11-06T04:50:11.859Z,3.40
2018-11-06T04:52:40.468Z,3.50
2018-11-06T04:55:09.871Z,3.50
2018-11-06T04:57:38.086Z,3.50
2018-11-06T05:00:08.475Z,3.40
2018-11-06T05:02:36.651Z,3.50
2018-11-06T05:05:05.414Z,3.50
2018-11-06T05:07:33.589Z,3.50
2018-11-06T05:10:01.758Z,3.50
2018-11-06T05:12:29.938Z,3.50
2018-11-06T05:14:58.109Z,3.50
2018-11-06T05:17:26.970Z,3.50
2018-11-06T05:19:55.146Z,3.50
2018-11-06T05:22:23.318Z,3.50
2018-11-06T05:24:51.507Z,3.40
2018-11-06T05:27:19.709Z,3.40
2018-11-06T05:29:47.938Z,3.50
2018-11-06T05:32:16.126Z,3.50
2018-11-06T05:34:44.412Z,3.40
2018-11-06T05:37:12.534Z,3.30
2018-11-06T05:39:52.044Z,3.30
2018-11-06T05:42:20.218Z,3.30
2018-11-06T05:44:48.717Z,3.30
2018-11-06T05:47:16.902Z,3.30
2018-11-06T05:49:45.081Z,3.30
2018-11-06T05:52:13.237Z,3.30
2018-11-06T05:54:41.430Z,3.40
2018-11-06T05:57:09.597Z,3.40
2018-11-06T05:59:37.790Z,3.50
2018-11-06T06:02:05.981Z,3.40
2018-11-06T06:04:34.167Z,3.50
2018-11-06T06:07:02.333Z,3.50
2018-11-06T06:09:30.524Z,3.70
2018-11-06T06:11:58.681Z,3.60
2018-11-06T06:14:26.917Z,3.60
2018-11-06T06:16:55.180Z,3.60
2018-11-06T06:19:23.382Z,3.70
2018-11-06T06:21:51.561Z,3.70
2018-11-06T06:24:19.749Z,3.70
2018-11-06T06:26:48.149Z,3.60
2018-11-06T06:29:16.347Z,3.60
2018-11-06T06:31:44.621Z,3.50
2018-11-06T06:34:12.961Z,3.50
2018-11-06T06:36:41.133Z,3.60
2018-11-06T06:39:09.947Z,3.60
2018-11-06T06:41:38.329Z,3.70
2018-11-06T06:44:06.793Z,3.70
2018-11-06T06:46:35.066Z,3.80
2018-11-06T06:49:03.237Z,3.80
2018-11-06T06:51:31.410Z,3.80
2018-11-06T06:53:59.650Z,3.90
2018-11-06T06:56:27.775Z,3.90
2018-11-06T06:58:56.665Z,3.90
2018-11-06T07:01:24.881Z,4.10
2018-11-06T07:03:53.175Z,4.10
2018-11-06T07:06:21.353Z,4.10
2018-11-06T07:08:49.568Z,4.10
2018-11-06T07:11:17.717Z,4.20
2018-11-06T07:13:45.888Z,4.30
2018-11-06T07:16:14.052Z,4.40
2018-11-06T07:18:42.218Z,4.40
2018-11-06T07:21:10.367Z,4.50
2018-11-06T07:23:38.516Z,4.60
2018-11-06T07:26:06.677Z,4.70
2018-11-06T07:28:34.873Z,4.80
2018-11-06T07:31:03.036Z,5.10
2018-11-06T07:33:31.212Z,5.30
2018-11-06T07:35:59.491Z,5.40
2018-11-06T07:38:27.565Z,5.50
2018-11-06T07:40:55.813Z,6.20
2018-11-06T07:43:23.922Z,6.80
2018-11-06T07:45:52.093Z,7.10
2018-11-06T07:48:20.264Z,7.10
2018-11-06T07:50:48.437Z,7.70
2018-11-06T07:53:16.613Z,8.00
2018-11-06T07:55:44.867Z,7.80
2018-11-06T07:58:12.950Z,8.10
2018-11-06T08:00:41.113Z,7.80
2018-11-06T08:03:09.291Z,8.40
2018-11-06T08:05:37.466Z,8.40
2018-11-06T08:08:05.805Z,8.60
2018-11-06T08:10:33.984Z,8.70
2018-11-06T08:13:02.137Z,9.00
2018-11-06T08:15:30.302Z,9.20
2018-11-06T08:17:58.512Z,8.90
2018-11-06T08:20:26.653Z,9.10
2018-11-06T08:22:54.819Z,9.00
2018-11-06T08:25:22.982Z,9.40
2018-11-06T08:27:51.218Z,9.50
2018-11-06T08:30:19.306Z,9.40
2018-11-06T08:32:47.795Z,9.50
2018-11-06T08:35:16.871Z,9.50
2018-11-06T08:37:45.080Z,9.30
2018-11-06T08:40:14.725Z,9.30
2018-11-06T08:42:42.922Z,8.70
2018-11-06T08:45:12.300Z,8.80
2018-11-06T08:47:41.489Z,9.00
2018-11-06T08:50:11.103Z,9.20
2018-11-06T08:52:39.282Z,9.20
2018-11-06T08:55:08.610Z,9.30
2018-11-06T08:57:36.827Z,9.10
2018-11-06T09:00:07.099Z,9.20
2018-11-06T09:02:35.287Z,9.10
2018-11-06T09:05:03.466Z,9.20
2018-11-06T09:07:31.633Z,9.20
2018-11-06T09:09:59.805Z,9.30
2018-11-06T09:12:27.966Z,9.40
2018-11-06T09:14:56.149Z,9.50
2018-11-06T09:17:24.314Z,9.70
2018-11-06T09:19:52.481Z,9.70
2018-11-06T09:22:20.641Z,10.00
2018-11-06T09:24:48.834Z,9.90
2018-11-06T09:27:17.006Z,10.20
2018-11-06T09:29:45.194Z,10.30
2018-11-06T09:32:13.381Z,10.40
2018-11-06T09:34:41.570Z,10.20
2018-11-06T09:37:09.760Z,10.50
2018-11-06T09:39:37.961Z,10.90
2018-11-06T09:42:06.483Z,11.10
2018-11-06T09:44:34.671Z,11.20
2018-11-06T09:47:02.870Z,11.40
2018-11-06T09:49:31.049Z,11.70
2018-11-06T09:51:59.326Z,12.20
2018-11-06T09:54:27.410Z,12.00
2018-11-06T09:56:55.605Z,12.10
2018-11-06T09:59:23.785Z,12.20
2018-11-06T10:01:51.962Z,12.20
2018-11-06T10:04:20.161Z,12.00
2018-11-06T10:06:48.620Z,11.90
2018-11-06T10:09:16.591Z,12.00
2018-11-06T10:11:44.733Z,12.00
2018-11-06T10:14:12.914Z,12.00
2018-11-06T10:16:41.113Z,12.30
2018-11-06T10:19:09.306Z,12.10
2018-11-06T10:21:37.482Z,12.10
2018-11-06T10:24:06.022Z,12.30
2018-11-06T10:26:34.200Z,12.10
2018-11-06T10:29:02.367Z,12.30
2018-11-06T10:31:30.545Z,12.00
2018-11-06T10:33:58.727Z,12.20
2018-11-06T10:36:26.898Z,12.10
2018-11-06T10:38:55.076Z,12.30
2018-11-06T10:41:23.258Z,12.50
2018-11-06T10:43:51.462Z,12.50
2018-11-06T10:46:19.663Z,12.50
2018-11-06T10:48:47.831Z,12.60
2018-11-06T10:51:16.023Z,12.60
2018-11-06T10:53:44.191Z,12.70
2018-11-06T10:56:12.377Z,12.60
2018-11-06T10:58:40.550Z,12.80
2018-11-06T11:01:14.193Z,12.90
2018-11-06T11:03:49.418Z,13.10
2018-11-06T11:06:17.583Z,12.90
2018-11-06T11:08:45.764Z,13.10
2018-11-06T11:11:13.948Z,13.30
2018-11-06T11:13:42.162Z,13.50
2018-11-06T11:16:10.307Z,13.50
2018-11-06T11:18:38.492Z,13.60
2018-11-06T11:21:06.795Z,13.70
2018-11-06T11:23:34.966Z,14.00
2018-11-06T11:26:03.134Z,14.00
2018-11-06T11:28:31.366Z,14.20
2018-11-06T11:30:59.565Z,13.60
2018-11-06T11:33:27.774Z,13.70
2018-11-06T11:35:55.966Z,14.00
2018-11-06T11:38:24.154Z,14.00
2018-11-06T11:40:52.336Z,14.10
2018-11-06T11:43:20.580Z,14.20
2018-11-06T11:45:48.807Z,14.40
2018-11-06T11:48:16.966Z,14.40
2018-11-06T11:50:45.209Z,14.50
2018-11-06T11:53:13.402Z,14.40
2018-11-06T11:55:41.585Z,14.60
2018-11-06T11:58:09.777Z,14.70
2018-11-06T12:00:39.062Z,14.90
2018-11-06T12:03:07.874Z,14.80
2018-11-06T12:05:36.070Z,14.90
2018-11-06T12:08:04.273Z,14.70
2018-11-06T12:10:32.450Z,14.90
2018-11-06T12:13:00.661Z,14.80
2018-11-06T12:15:28.851Z,15.00
2018-11-06T12:17:57.050Z,15.00
2018-11-06T12:20:25.241Z,15.10
2018-11-06T12:22:54.029Z,15.20
2018-11-06T12:25:22.483Z,15.20
2018-11-06T12:27:50.415Z,15.10
2018-11-06T12:30:18.659Z,15.20
2018-11-06T12:32:47.849Z,15.40
2018-11-06T12:35:16.105Z,15.50
2018-11-06T12:37:44.378Z,15.60
2018-11-06T12:40:13.419Z,15.70
2018-11-06T12:42:42.008Z,15.70
2018-11-06T12:45:11.701Z,15.60
2018-11-06T12:47:40.193Z,15.50
2018-11-06T12:50:08.728Z,15.70
2018-11-06T12:52:39.000Z,15.60
2018-11-06T12:55:08.505Z,15.60
2018-11-06T12:57:36.853Z,15.60
2018-11-06T13:00:05.653Z,15.70
2018-11-06T13:02:33.837Z,15.80
2018-11-06T13:05:04.246Z,15.80
2018-11-06T13:07:32.431Z,15.60
2018-11-06T13:10:00.606Z,15.60
2018-11-06T13:12:29.269Z,15.80
2018-11-06T13:14:58.990Z,15.70
2018-11-06T13:17:25.626Z,15.60
2018-11-06T13:19:53.808Z,15.70
2018-11-06T13:22:22.018Z,15.90
2018-11-06T13:24:50.410Z,15.90
2018-11-06T13:27:18.598Z,16.00
2018-11-06T13:29:46.794Z,15.80
2018-11-06T13:32:14.981Z,15.70
2018-11-06T13:34:43.121Z,15.80
2018-11-06T13:37:11.314Z,16.00
2018-11-06T13:39:39.470Z,15.90
2018-11-06T13:42:07.683Z,16.30
2018-11-06T13:44:36.247Z,16.50
2018-11-06T13:47:04.310Z,16.20
2018-11-06T13:49:32.480Z,16.10
2018-11-06T13:52:00.705Z,15.90
2018-11-06T13:54:28.819Z,16.10
2018-11-06T13:56:57.003Z,16.10
2018-11-06T13:59:25.164Z,16.10
2018-11-06T14:01:53.336Z,16.20
2018-11-06T14:04:21.548Z,16.00
2018-11-06T14:06:49.762Z,16.00
2018-11-06T14:09:17.927Z,16.10
2018-11-06T14:11:46.094Z,15.90
2018-11-06T14:14:14.238Z,16.00
2018-11-06T14:16:42.410Z,15.90
2018-11-06T14:19:10.573Z,15.80
2018-11-06T14:21:38.749Z,15.70
2018-11-06T14:24:06.922Z,15.70
2018-11-06T14:26:35.070Z,15.70
2018-11-06T14:29:03.229Z,15.50
2018-11-06T14:31:31.393Z,15.40
2018-11-06T14:33:59.567Z,15.30
2018-11-06T14:36:27.758Z,15.30
2018-11-06T14:38:55.958Z,15.20
2018-11-06T14:41:24.141Z,15.10
2018-11-06T14:43:52.327Z,15.10
2018-11-06T14:46:20.495Z,15.10
2018-11-06T14:48:48.810Z,14.90
2018-11-06T14:51:16.834Z,14.80
2018-11-06T14:53:45.016Z,14.80
2018-11-06T14:56:13.198Z,14.70
2018-11-06T14:58:41.371Z,14.60
2018-11-06T15:01:09.530Z,14.50
2018-11-06T15:03:37.730Z,14.40
2018-11-06T15:06:06.248Z,14.30
2018-11-06T15:08:34.441Z,14.30
2018-11-06T15:11:02.678Z,14.30
2018-11-06T15:13:30.891Z,14.30
2018-11-06T15:15:59.129Z,14.10
2018-11-06T15:18:27.306Z,14.00
2018-11-06T15:20:55.546Z,13.90
2018-11-06T15:23:23.690Z,13.80
2018-11-06T15:25:51.878Z,13.80
2018-11-06T15:28:20.062Z,13.70
2018-11-06T15:30:48.250Z,13.70
2018-11-06T15:33:16.425Z,13.50
2018-11-06T15:35:44.598Z,13.60
2018-11-06T15:38:12.783Z,13.50
2018-11-06T15:40:40.999Z,13.50
2018-11-06T15:43:09.140Z,13.30
2018-11-06T15:45:37.314Z,13.20
2018-11-06T15:48:05.525Z,13.00
2018-11-06T15:50:33.701Z,12.80
2018-11-06T15:53:01.942Z,12.60
2018-11-06T15:55:30.118Z,12.60
2018-11-06T15:57:58.323Z,12.50
2018-11-06T16:00:26.497Z,12.60
2018-11-06T16:02:54.670Z,12.60
2018-11-06T16:05:22.828Z,12.60
2018-11-06T16:07:51.173Z,12.50
2018-11-06T16:10:21.745Z,12.40
2018-11-06T16:12:50.027Z,12.20
2018-11-06T16:15:18.215Z,12.00
2018-11-06T16:17:47.453Z,12.00
2018-11-06T16:20:16.903Z,11.90
2018-11-06T16:22:45.742Z,11.90
2018-11-06T16:25:14.981Z,11.70
2018-11-06T16:27:43.470Z,11.60
2018-11-06T16:30:14.015Z,11.60
2018-11-06T16:32:42.789Z,11.60
2018-11-06T16:35:12.696Z,11.50
2018-11-06T16:37:41.789Z,11.50
2018-11-06T16:40:10.573Z,11.40
2018-11-06T16:42:39.060Z,11.30
2018-11-06T16:45:09.282Z,11.20
2018-11-06T16:47:37.533Z,11.10
2018-11-06T16:50:07.138Z,11.10
2018-11-06T16:52:35.309Z,11.10
2018-11-06T16:55:03.473Z,11.10
2018-11-06T16:57:31.661Z,11.20
2018-11-06T17:00:01.031Z,11.20
2018-11-06T17:02:30.940Z,11.40
2018-11-06T17:05:00.143Z,11.30
2018-11-06T17:07:28.318Z,11.20
2018-11-06T17:09:56.487Z,11.20
2018-11-06T17:12:24.641Z,11.10
2018-11-06T17:14:54.774Z,10.90
2018-11-06T17:17:24.682Z,10.90
2018-11-06T17:19:53.082Z,10.80
2018-11-06T17:22:23.073Z,10.70
2018-11-06T17:24:51.241Z,10.70
2018-11-06T17:27:19.493Z,10.50
2018-11-06T17:29:47.668Z,10.50
2018-11-06T17:32:15.864Z,10.40
2018-11-06T17:34:44.068Z,10.50
2018-11-06T17:37:12.361Z,10.40
2018-11-06T17:39:40.624Z,10.30
2018-11-06T17:42:08.746Z,10.30
2018-11-06T17:44:36.933Z,10.30
2018-11-06T17:47:05.182Z,10.40
2018-11-06T17:49:33.373Z,10.20
2018-11-06T17:52:01.569Z,10.00
2018-11-06T17:54:29.768Z,10.10
2018-11-06T17:56:57.961Z,10.00
2018-11-06T17:59:26.142Z,10.00
2018-11-06T18:01:54.320Z,10.00
2018-11-06T18:04:22.624Z,10.00
2018-11-06T18:06:50.697Z,9.90
2018-11-06T18:09:18.878Z,10.00
2018-11-06T18:11:47.079Z,9.90
2018-11-06T18:14:15.240Z,9.90
2018-11-06T18:16:43.417Z,9.90
2018-11-06T18:19:11.746Z,9.80
2018-11-06T18:21:42.000Z,9.70
2018-11-06T18:24:10.177Z,9.70
2018-11-06T18:26:38.423Z,9.70
2018-11-06T18:29:06.645Z,9.60
2018-11-06T18:31:34.877Z,9.40
2018-11-06T18:34:03.025Z,9.40
2018-11-06T18:36:31.193Z,9.40
2018-11-06T18:38:59.435Z,9.50
2018-11-06T18:41:27.729Z,9.60
2018-11-06T18:43:55.919Z,9.70
2018-11-06T18:46:24.205Z,9.60
2018-11-06T18:48:52.401Z,9.40
2018-11-06T18:51:20.579Z,9.30
2018-11-06T18:53:48.781Z,9.30
2018-11-06T18:56:16.968Z,9.30
2018-11-06T18:58:45.179Z,9.30
2018-11-06T19:01:13.354Z,9.20
2018-11-06T19:03:41.546Z,9.20
2018-11-06T19:06:09.760Z,9.30
2018-11-06T19:08:37.962Z,9.50
2018-11-06T19:11:06.130Z,9.50
2018-11-06T19:13:34.330Z,9.30
2018-11-06T19:16:02.514Z,9.20
2018-11-06T19:18:30.718Z,9.10
2018-11-06T19:20:58.889Z,9.10
2018-11-06T19:23:33.583Z,9.20
2018-11-06T19:26:02.549Z,9.20
2018-11-06T19:28:30.734Z,9.20
2018-11-06T19:30:58.893Z,9.00
2018-11-06T19:33:27.099Z,8.90
2018-11-06T19:35:55.278Z,8.80
2018-11-06T19:38:23.450Z,8.80
2018-11-06T19:40:51.637Z,8.80
2018-11-06T19:43:19.821Z,8.80
2018-11-06T19:45:48.012Z,8.90
2018-11-06T19:48:16.187Z,8.80
2018-11-06T19:50:44.359Z,8.80
2018-11-06T19:53:12.740Z,8.70
2018-11-06T19:55:40.866Z,8.60
2018-11-06T19:58:09.041Z,8.50
2018-11-06T20:00:37.246Z,8.50
2018-11-06T20:03:05.635Z,8.50
2018-11-06T20:05:33.875Z,8.60
2018-11-06T20:08:02.005Z,8.50
2018-11-06T20:10:30.210Z,8.40
2018-11-06T20:12:58.404Z,8.50
2018-11-06T20:15:26.585Z,8.50
2018-11-06T20:17:54.789Z,8.50
2018-11-06T20:20:24.457Z,8.50
2018-11-06T20:22:52.670Z,8.40
2018-11-06T20:25:20.865Z,8.30
2018-11-06T20:27:49.095Z,8.40
2018-11-06T20:30:21.701Z,8.40
2018-11-06T20:32:49.903Z,8.40
2018-11-06T20:35:18.133Z,8.30
2018-11-06T20:37:46.298Z,8.20
2018-11-06T20:40:18.186Z,8.30
2018-11-06T20:42:46.886Z,8.40
2018-11-06T20:45:16.069Z,8.40
2018-11-06T20:47:44.645Z,8.30
2018-11-06T20:50:17.125Z,8.30
2018-11-06T20:52:45.349Z,8.30
2018-11-06T20:55:14.500Z,8.30
2018-11-06T20:57:42.718Z,8.30
2018-11-06T21:00:18.239Z,8.40
2018-11-06T21:02:46.803Z,8.30
2018-11-06T21:05:15.786Z,8.20
2018-11-06T21:07:44.577Z,8.10
2018-11-06T21:10:13.098Z,8.00
2018-11-06T21:12:41.278Z,8.00
2018-11-06T21:15:09.915Z,8.00
2018-11-06T21:17:38.170Z,8.00
2018-11-06T21:20:07.608Z,8.00
2018-11-06T21:22:35.746Z,8.00
2018-11-06T21:25:04.035Z,8.00
2018-11-06T21:27:32.249Z,8.00
2018-11-06T21:30:00.534Z,7.90
2018-11-06T21:32:28.746Z,7.90
2018-11-06T21:34:57.123Z,7.90
2018-11-06T21:37:25.423Z,7.90
2018-11-06T21:39:53.630Z,7.80
2018-11-06T21:42:21.897Z,7.80
2018-11-06T21:44:50.090Z,7.80
2018-11-06T21:47:18.271Z,7.80
2018-11-06T21:49:46.473Z,7.70
2018-11-06T21:52:14.655Z,7.70
2018-11-06T21:54:42.939Z,7.60
2018-11-06T21:57:11.064Z,7.60
2018-11-06T21:59:39.225Z,7.70
2018-11-06T22:02:07.398Z,7.80
2018-11-06T22:04:35.597Z,7.70
2018-11-06T22:07:03.762Z,7.60
2018-11-06T22:09:31.937Z,7.60
2018-11-06T22:12:00.165Z,7.60
2018-11-06T22:14:28.281Z,7.50
2018-11-06T22:16:56.463Z,7.60
2018-11-06T22:19:24.932Z,7.70
2018-11-06T22:21:53.177Z,7.80
2018-11-06T22:24:21.370Z,7.70
2018-11-06T22:26:49.550Z,7.70
2018-11-06T22:29:17.747Z,7.70
2018-11-06T22:31:45.983Z,7.70
2018-11-06T22:34:14.162Z,7.50
2018-11-06T22:36:42.365Z,7.70
2018-11-06T22:39:10.966Z,7.50
2018-11-06T22:41:39.545Z,7.40
2018-11-06T22:44:08.884Z,7.40
2018-11-06T22:46:37.506Z,7.30
2018-11-06T22:49:06.315Z,7.30
2018-11-06T22:51:34.482Z,7.30
2018-11-06T22:54:02.649Z,7.30
2018-11-06T22:56:30.945Z,7.30
2018-11-06T22:58:59.124Z,7.20
2018-11-06T23:01:27.352Z,7.20
2018-11-06T23:03:55.597Z,7.20
2018-11-06T23:06:23.866Z,7.10
2018-11-06T23:08:51.997Z,7.10
2018-11-06T23:11:20.176Z,7.20
2018-11-06T23:13:48.343Z,7.20
2018-11-06T23:16:16.542Z,7.20
2018-11-06T23:18:44.709Z,7.20
2018-11-06T23:21:12.907Z,7.20
2018-11-06T23:23:41.090Z,7.20
2018-11-06T23:26:09.261Z,7.20
2018-11-06T23:28:37.434Z,7.20
2018-11-06T23:31:05.630Z,7.10
2018-11-06T23:33:33.818Z,7.10
2018-11-06T23:36:02.056Z,7.10
2018-11-06T23:38:30.241Z,7.10
2018-11-06T23:40:58.459Z,7.30
2018-11-06T23:43:26.703Z,7.20
2018-11-06T23:45:54.888Z,7.20
2018-11-06T23:48:23.085Z,7.20
2018-11-06T23:50:51.338Z,7.20
2018-11-06T23:53:19.534Z,7.30
2018-11-06T23:55:47.777Z,7.30
2018-11-06T23:58:15.974Z,7.40
